createdAt,value
2023-08-22T00:01:30.890Z,3.10
2023-08-22T00:03:59.100Z,3.23
2023-08-22T00:06:27.458Z,2.63
2023-08-22T00:08:56.427Z,3.00
2023-08-22T00:11:24.500Z,2.80
2023-08-22T00:13:52.508Z,3.20
2023-08-22T00:16:24.171Z,3.10
2023-08-22T00:18:52.224Z,3.00
2023-08-22T00:21:20.222Z,2.50
2023-08-22T00:23:48.302Z,3.10
2023-08-22T00:26:16.534Z,2.70
2023-08-22T00:28:52.306Z,3.13
2023-08-22T00:31:22.018Z,3.30
2023-08-22T00:33:50.149Z,2.93
2023-08-22T00:36:18.964Z,2.80
2023-08-22T00:38:47.033Z,3.03
2023-08-22T00:41:15.078Z,2.93
2023-08-22T00:43:43.083Z,3.20
2023-08-22T00:46:11.461Z,3.10
2023-08-22T00:48:40.509Z,2.73
2023-08-22T00:51:09.529Z,3.50
2023-08-22T00:53:38.076Z,2.53
2023-08-22T00:56:06.473Z,3.07
2023-08-22T00:58:34.504Z,2.93
2023-08-22T01:01:04.576Z,2.60
2023-08-22T01:03:33.050Z,3.20
2023-08-22T01:06:11.363Z,3.17
2023-08-22T01:08:42.015Z,3.20
2023-08-22T01:11:17.890Z,3.37
2023-08-22T01:13:51.291Z,4.00
2023-08-22T01:16:21.719Z,2.90
2023-08-22T01:18:51.931Z,3.50
2023-08-22T01:21:22.156Z,3.60
2023-08-22T01:23:51.802Z,3.60
2023-08-22T01:26:20.492Z,4.20
2023-08-22T01:28:52.424Z,3.60
2023-08-22T01:31:27.396Z,3.73
2023-08-22T01:34:03.764Z,3.30
2023-08-22T01:36:33.537Z,4.20
2023-08-22T01:39:08.937Z,3.93
2023-08-22T01:41:39.312Z,3.90
2023-08-22T01:44:10.170Z,3.23
2023-08-22T01:46:38.291Z,4.87
2023-08-22T01:49:06.475Z,3.33
2023-08-22T01:51:34.543Z,4.37
2023-08-22T01:54:04.309Z,3.47
2023-08-22T01:56:32.414Z,3.80
2023-08-22T01:59:00.739Z,3.27
2023-08-22T02:01:29.725Z,3.23
2023-08-22T02:04:02.733Z,3.43
2023-08-22T02:06:30.931Z,3.40
2023-08-22T02:08:59.927Z,3.63
2023-08-22T02:11:29.304Z,3.97
2023-08-22T02:13:59.548Z,3.57
2023-08-22T02:16:27.701Z,3.57
2023-08-22T02:18:56.632Z,3.37
2023-08-22T02:21:24.808Z,3.30
2023-08-22T02:23:52.841Z,3.20
2023-08-22T02:26:20.971Z,3.37
2023-08-22T02:28:51.585Z,3.20
2023-08-22T02:31:19.701Z,3.70
2023-08-22T02:33:48.078Z,3.20
2023-08-22T02:36:16.126Z,3.30
2023-08-22T02:38:44.505Z,2.97
2023-08-22T02:41:12.537Z,2.80
2023-08-22T02:43:41.896Z,3.30
2023-08-22T02:46:11.571Z,4.07
2023-08-22T02:48:40.397Z,3.50
2023-08-22T02:51:08.953Z,3.87
2023-08-22T02:53:36.962Z,4.33
2023-08-22T02:56:06.053Z,4.33
2023-08-22T02:58:35.679Z,4.20
2023-08-22T03:01:05.425Z,4.30
2023-08-22T03:03:35.002Z,4.47
2023-08-22T03:06:03.923Z,3.90
2023-08-22T03:08:32.260Z,4.10
2023-08-22T03:11:04.060Z,4.40
2023-08-22T03:13:32.425Z,4.03
2023-08-22T03:16:01.080Z,4.43
2023-08-22T03:18:35.712Z,4.63
2023-08-22T03:21:03.926Z,4.40
2023-08-22T03:23:32.049Z,4.27
2023-08-22T03:26:00.720Z,4.13
2023-08-22T03:28:30.634Z,4.60
2023-08-22T03:30:59.781Z,4.63
2023-08-22T03:33:27.967Z,4.80
2023-08-22T03:35:59.805Z,4.37
2023-08-22T03:38:28.444Z,5.40
2023-08-22T03:40:57.685Z,4.10
2023-08-22T03:43:26.394Z,4.40
2023-08-22T03:45:55.174Z,4.13
2023-08-22T03:48:23.256Z,4.37
2023-08-22T03:50:51.618Z,4.00
2023-08-22T03:53:21.470Z,4.53
2023-08-22T03:55:51.040Z,4.60
2023-08-22T03:58:19.152Z,4.40
2023-08-22T04:00:47.812Z,4.80
2023-08-22T04:03:16.395Z,4.60
2023-08-22T04:05:44.708Z,5.43
2023-08-22T04:08:13.112Z,4.27
2023-08-22T04:10:42.525Z,4.20
2023-08-22T04:13:14.026Z,4.73
2023-08-22T04:15:45.648Z,5.20
2023-08-22T04:18:13.985Z,4.33
2023-08-22T04:20:44.108Z,4.37
2023-08-22T04:23:12.873Z,4.33
2023-08-22T04:25:42.252Z,4.00
2023-08-22T04:28:12.675Z,4.80
2023-08-22T04:30:42.407Z,4.70
2023-08-22T04:33:10.586Z,4.00
2023-08-22T04:35:39.462Z,4.67
2023-08-22T04:38:08.029Z,4.30
2023-08-22T04:40:36.212Z,5.10
2023-08-22T04:43:14.798Z,4.07
2023-08-22T04:45:42.837Z,5.07
2023-08-22T04:48:11.590Z,5.13
2023-08-22T04:50:39.655Z,4.10
2023-08-22T04:53:08.287Z,4.60
2023-08-22T04:55:36.443Z,4.40
2023-08-22T04:58:04.702Z,5.20
2023-08-22T05:00:34.046Z,5.50
2023-08-22T05:03:03.242Z,5.20
2023-08-22T05:05:31.734Z,5.73
2023-08-22T05:08:00.776Z,6.73
2023-08-22T05:10:28.961Z,5.80
2023-08-22T05:12:57.067Z,4.80
2023-08-22T05:15:27.133Z,5.50
2023-08-22T05:17:57.737Z,6.00
2023-08-22T05:20:26.407Z,5.33
2023-08-22T05:22:54.685Z,7.07
2023-08-22T05:25:22.825Z,6.20
2023-08-22T05:27:50.917Z,4.80
2023-08-22T05:30:20.505Z,6.60
2023-08-22T05:32:48.665Z,5.40
2023-08-22T05:35:18.307Z,6.03
2023-08-22T05:37:46.533Z,5.67
2023-08-22T05:40:14.562Z,5.53
2023-08-22T05:42:42.702Z,5.30
2023-08-22T05:45:11.943Z,5.43
2023-08-22T05:47:42.093Z,5.67
2023-08-22T05:50:11.012Z,5.50
2023-08-22T05:52:40.460Z,6.77
2023-08-22T05:55:09.529Z,7.20
2023-08-22T05:57:38.893Z,6.67
2023-08-22T06:00:09.633Z,6.97
2023-08-22T06:02:45.220Z,6.33
2023-08-22T06:05:15.742Z,6.10
2023-08-22T06:07:45.812Z,6.37
2023-08-22T06:10:13.973Z,6.93
2023-08-22T06:12:42.206Z,7.10
2023-08-22T06:15:11.169Z,6.57
2023-08-22T06:17:39.794Z,6.97
2023-08-22T06:20:09.808Z,7.30
2023-08-22T06:22:37.906Z,5.70
2023-08-22T06:25:08.524Z,5.10
2023-08-22T06:27:36.879Z,5.30
2023-08-22T06:30:05.712Z,4.07
2023-08-22T06:32:36.806Z,6.07
2023-08-22T06:35:05.938Z,5.07
2023-08-22T06:37:34.230Z,5.10
2023-08-22T06:40:02.469Z,6.17
2023-08-22T06:42:31.974Z,5.97
2023-08-22T06:45:00.331Z,6.03
2023-08-22T06:47:28.591Z,6.00
2023-08-22T06:49:56.731Z,6.00
2023-08-22T06:52:24.859Z,5.97
2023-08-22T06:54:53.112Z,4.80
2023-08-22T06:57:21.176Z,5.03
2023-08-22T06:59:50.620Z,4.47
2023-08-22T07:02:18.607Z,4.70
2023-08-22T07:04:47.195Z,4.63
2023-08-22T07:07:15.286Z,4.40
2023-08-22T07:09:43.300Z,4.67
2023-08-22T07:12:11.314Z,3.90
2023-08-22T07:14:43.148Z,4.10
2023-08-22T07:17:12.840Z,4.20
2023-08-22T07:19:42.506Z,4.30
2023-08-22T07:22:10.853Z,4.53
2023-08-22T07:24:38.916Z,4.43
2023-08-22T07:27:07.170Z,4.10
2023-08-22T07:29:35.221Z,4.00
2023-08-22T07:32:03.525Z,4.00
2023-08-22T07:34:34.298Z,3.43
2023-08-22T07:37:02.387Z,3.33
2023-08-22T07:39:30.384Z,2.87
2023-08-22T07:41:58.484Z,3.03
2023-08-22T07:44:26.572Z,3.80
2023-08-22T07:46:54.859Z,4.53
2023-08-22T07:49:22.883Z,5.40
2023-08-22T07:51:52.530Z,5.93
2023-08-22T07:54:20.808Z,5.47
2023-08-22T07:56:48.970Z,4.80
2023-08-22T07:59:17.422Z,4.40
2023-08-22T08:01:45.736Z,5.60
2023-08-22T08:04:17.910Z,4.60
2023-08-22T08:06:48.171Z,5.30
2023-08-22T08:09:29.256Z,3.83
2023-08-22T08:12:01.515Z,4.07
2023-08-22T08:14:29.607Z,4.27
2023-08-22T08:16:58.263Z,3.73
2023-08-22T08:19:27.619Z,4.17
2023-08-22T08:21:56.008Z,3.00
2023-08-22T08:24:25.432Z,2.63
2023-08-22T08:26:53.508Z,2.67
2023-08-22T08:29:22.852Z,2.30
2023-08-22T08:31:50.933Z,2.47
2023-08-22T08:34:23.092Z,2.77
2023-08-22T08:36:54.072Z,6.03
2023-08-22T08:39:22.529Z,4.10
2023-08-22T08:42:01.901Z,3.90
2023-08-22T08:44:30.487Z,3.73
2023-08-22T08:47:03.022Z,3.97
2023-08-22T08:49:38.021Z,3.13
2023-08-22T08:52:09.473Z,2.80
2023-08-22T08:54:37.755Z,2.57
2023-08-22T08:57:07.347Z,3.40
2023-08-22T08:59:35.500Z,2.60
2023-08-22T09:02:05.096Z,1.80
2023-08-22T09:04:33.345Z,2.73
2023-08-22T09:07:01.464Z,2.63
2023-08-22T09:09:36.468Z,2.30
2023-08-22T09:12:09.110Z,3.30
2023-08-22T09:14:42.782Z,2.30
2023-08-22T09:17:11.376Z,2.07
2023-08-22T09:19:39.376Z,2.03
2023-08-22T09:22:07.906Z,1.60
2023-08-22T09:24:38.463Z,2.67
2023-08-22T09:27:09.282Z,2.10
2023-08-22T09:29:37.405Z,2.10
2023-08-22T09:32:06.804Z,3.00
2023-08-22T09:34:42.406Z,3.00
2023-08-22T09:37:14.562Z,1.80
2023-08-22T09:39:56.245Z,1.83
2023-08-22T09:42:30.680Z,3.10
2023-08-22T09:45:00.395Z,2.47
2023-08-22T09:47:31.516Z,2.90
2023-08-22T09:50:05.066Z,1.93
2023-08-22T09:52:39.288Z,2.90
2023-08-22T09:55:09.234Z,2.00
2023-08-22T09:57:39.704Z,2.30
2023-08-22T10:00:11.805Z,2.37
2023-08-22T10:02:45.259Z,2.17
2023-08-22T10:05:15.379Z,2.30
2023-08-22T10:07:43.807Z,2.60
2023-08-22T10:10:12.247Z,3.07
2023-08-22T10:12:42.721Z,2.87
2023-08-22T10:15:13.696Z,2.30
2023-08-22T10:17:42.130Z,2.37
2023-08-22T10:20:17.211Z,1.80
2023-08-22T10:22:45.685Z,2.10
2023-08-22T10:25:14.490Z,2.27
2023-08-22T10:27:48.931Z,1.80
2023-08-22T10:30:21.996Z,2.00
2023-08-22T10:33:11.603Z,2.30
2023-08-22T10:36:08.598Z,2.03
2023-08-22T10:38:57.921Z,1.80
2023-08-22T10:41:45.386Z,2.23
2023-08-22T10:44:19.870Z,2.07
2023-08-22T10:47:04.245Z,1.90
2023-08-22T10:49:33.015Z,2.27
2023-08-22T10:52:07.945Z,2.40
2023-08-22T10:54:36.622Z,2.70
2023-08-22T10:57:23.888Z,1.70
2023-08-22T11:00:08.351Z,2.00
2023-08-22T11:02:38.206Z,3.10
2023-08-22T11:05:10.682Z,2.80
2023-08-22T11:07:41.711Z,2.67
2023-08-22T11:10:13.785Z,2.23
2023-08-22T11:12:42.016Z,1.83
2023-08-22T11:15:12.769Z,2.30
2023-08-22T11:17:42.020Z,2.90
2023-08-22T11:20:12.693Z,2.10
2023-08-22T11:22:42.079Z,1.47
2023-08-22T11:25:10.893Z,1.77
2023-08-22T11:27:39.471Z,1.90
2023-08-22T11:30:09.302Z,2.70
2023-08-22T11:32:41.425Z,2.27
2023-08-22T11:35:12.127Z,2.00
2023-08-22T11:37:43.865Z,1.77
2023-08-22T11:40:15.578Z,1.70
2023-08-22T11:42:47.308Z,1.57
2023-08-22T11:45:18.566Z,1.83
2023-08-22T11:47:50.420Z,1.77
2023-08-22T11:50:22.572Z,1.70
2023-08-22T11:52:55.795Z,1.60
2023-08-22T11:55:26.376Z,1.87
2023-08-22T11:57:56.365Z,1.87
2023-08-22T12:00:27.377Z,1.10
2023-08-22T12:03:00.253Z,2.20
2023-08-22T12:05:32.928Z,1.70
2023-08-22T12:08:02.135Z,1.47
2023-08-22T12:10:40.622Z,1.83
2023-08-22T12:13:09.169Z,1.80
2023-08-22T12:15:37.628Z,1.73
2023-08-22T12:18:07.831Z,1.67
2023-08-22T12:20:38.602Z,1.23
2023-08-22T12:23:07.007Z,1.50
2023-08-22T12:25:35.686Z,1.70
2023-08-22T12:28:05.054Z,1.50
2023-08-22T12:30:34.911Z,1.43
2023-08-22T12:33:04.413Z,2.10
2023-08-22T12:35:36.138Z,1.40
2023-08-22T12:38:04.670Z,1.20
2023-08-22T12:40:32.852Z,1.93
2023-08-22T12:43:01.597Z,1.73
2023-08-22T12:45:30.318Z,1.53
2023-08-22T12:47:58.521Z,1.47
2023-08-22T12:50:26.993Z,1.30
2023-08-22T12:52:56.585Z,1.80
2023-08-22T12:55:24.680Z,1.40
2023-08-22T12:57:52.822Z,1.73
2023-08-22T13:00:21.873Z,1.73
2023-08-22T13:02:50.516Z,1.30
2023-08-22T13:05:19.361Z,1.10
2023-08-22T13:07:48.070Z,1.20
2023-08-22T13:10:17.898Z,1.40
2023-08-22T13:12:46.555Z,1.30
2023-08-22T13:15:14.940Z,1.20
2023-08-22T13:17:43.106Z,1.60
2023-08-22T13:20:12.298Z,1.67
2023-08-22T13:22:40.449Z,1.40
2023-08-22T13:25:10.966Z,1.70
2023-08-22T13:27:41.109Z,1.40
2023-08-22T13:30:10.236Z,1.33
2023-08-22T13:32:38.445Z,1.70
2023-08-22T13:35:09.929Z,1.80
2023-08-22T13:37:38.061Z,1.80
2023-08-22T13:40:07.344Z,2.40
2023-08-22T13:42:36.039Z,1.50
2023-08-22T13:45:06.100Z,1.70
2023-08-22T13:47:34.244Z,1.40
2023-08-22T13:50:03.499Z,2.70
2023-08-22T13:52:31.835Z,1.87
2023-08-22T13:55:00.002Z,2.10
2023-08-22T13:57:27.752Z,2.27
2023-08-22T13:59:56.321Z,1.80
2023-08-22T14:02:25.939Z,1.67
2023-08-22T14:04:54.088Z,1.90
2023-08-22T14:07:22.103Z,1.47
2023-08-22T14:09:50.211Z,1.30
2023-08-22T14:12:18.429Z,1.50
2023-08-22T14:14:46.509Z,1.60
2023-08-22T14:17:14.566Z,1.50
2023-08-22T14:19:44.320Z,1.57
2023-08-22T14:22:12.440Z,1.43
2023-08-22T14:24:41.409Z,1.83
2023-08-22T14:27:09.541Z,1.60
2023-08-22T14:29:37.679Z,1.57
2023-08-22T14:32:05.799Z,1.70
2023-08-22T14:34:34.102Z,2.00
2023-08-22T14:37:16.891Z,2.10
2023-08-22T14:39:50.566Z,1.60
2023-08-22T14:42:18.610Z,2.30
2023-08-22T14:44:46.974Z,1.70
2023-08-22T14:47:15.030Z,2.23
2023-08-22T14:49:43.275Z,2.17
2023-08-22T14:52:13.142Z,2.00
2023-08-22T14:54:41.382Z,1.70
2023-08-22T14:57:09.642Z,1.87
2023-08-22T14:59:37.852Z,2.10
2023-08-22T15:02:06.628Z,1.90
2023-08-22T15:04:34.967Z,1.97
2023-08-22T15:07:03.456Z,3.33
2023-08-22T15:09:32.926Z,3.10
2023-08-22T15:12:01.016Z,2.33
2023-08-22T15:14:29.294Z,2.73
2023-08-22T15:16:57.492Z,1.57
2023-08-22T15:19:25.728Z,1.83
2023-08-22T15:21:53.967Z,1.90
2023-08-22T15:24:22.157Z,2.07
2023-08-22T15:26:51.989Z,2.03
2023-08-22T15:29:20.285Z,2.60
2023-08-22T15:31:48.255Z,2.67
2023-08-22T15:34:16.256Z,3.30
2023-08-22T15:36:44.342Z,2.90
2023-08-22T15:39:12.599Z,2.10
2023-08-22T15:41:41.411Z,2.27
2023-08-22T15:44:10.859Z,2.17
2023-08-22T15:46:39.150Z,2.30
2023-08-22T15:49:07.427Z,2.30
2023-08-22T15:51:35.493Z,1.80
2023-08-22T15:54:04.015Z,1.93
2023-08-22T15:56:32.196Z,2.67
2023-08-22T15:59:00.352Z,2.80
2023-08-22T16:01:29.819Z,1.90
2023-08-22T16:03:58.267Z,1.70
2023-08-22T16:06:26.443Z,1.60
2023-08-22T16:08:54.525Z,2.00
2023-08-22T16:11:22.682Z,1.77
2023-08-22T16:13:51.478Z,1.93
2023-08-22T16:16:19.801Z,2.17
2023-08-22T16:18:49.344Z,1.80
2023-08-22T16:21:17.464Z,1.70
2023-08-22T16:23:45.526Z,1.70
2023-08-22T16:26:14.703Z,1.70
2023-08-22T16:28:44.421Z,1.90
2023-08-22T16:31:12.559Z,1.70
2023-08-22T16:33:41.545Z,1.67
2023-08-22T16:36:11.471Z,1.50
2023-08-22T16:38:39.510Z,1.37
2023-08-22T16:41:07.642Z,1.50
2023-08-22T16:43:35.728Z,2.20
2023-08-22T16:46:05.171Z,1.67
2023-08-22T16:48:33.684Z,1.70
2023-08-22T16:51:01.762Z,1.47
2023-08-22T16:53:33.467Z,1.70
2023-08-22T16:56:04.717Z,1.50
2023-08-22T16:58:33.240Z,1.53
2023-08-22T17:01:01.600Z,1.50
2023-08-22T17:03:29.691Z,1.63
2023-08-22T17:05:57.760Z,1.40
2023-08-22T17:08:25.915Z,1.90
2023-08-22T17:11:04.155Z,1.63
2023-08-22T17:13:32.311Z,1.50
2023-08-22T17:16:00.893Z,1.43
2023-08-22T17:18:29.422Z,1.83
2023-08-22T17:20:57.644Z,1.33
2023-08-22T17:23:25.741Z,1.80
2023-08-22T17:26:04.533Z,1.50
2023-08-22T17:28:32.655Z,1.23
2023-08-22T17:31:00.760Z,1.30
2023-08-22T17:33:29.261Z,1.53
2023-08-22T17:35:57.265Z,1.50
2023-08-22T17:38:25.840Z,1.57
2023-08-22T17:40:55.304Z,1.20
2023-08-22T17:43:23.801Z,1.50
2023-08-22T17:45:51.913Z,1.60
2023-08-22T17:48:20.092Z,1.37
2023-08-22T17:50:48.424Z,1.20
2023-08-22T17:53:16.598Z,1.47
2023-08-22T17:55:45.145Z,1.70
2023-08-22T17:58:14.796Z,1.70
2023-08-22T18:00:43.199Z,1.50
2023-08-22T18:03:14.269Z,1.17
2023-08-22T18:05:54.268Z,1.53
2023-08-22T18:08:22.732Z,1.20
2023-08-22T18:10:51.960Z,1.10
2023-08-22T18:13:22.053Z,1.20
2023-08-22T18:16:02.630Z,1.20
2023-08-22T18:18:31.431Z,1.23
2023-08-22T18:21:03.485Z,1.20
2023-08-22T18:23:32.050Z,1.30
2023-08-22T18:26:00.886Z,1.50
2023-08-22T18:28:32.809Z,1.20
2023-08-22T18:31:03.088Z,1.20
2023-08-22T18:33:31.620Z,1.30
2023-08-22T18:35:59.843Z,1.60
2023-08-22T18:38:28.045Z,1.27
2023-08-22T18:40:56.991Z,1.17
2023-08-22T18:43:25.906Z,1.60
2023-08-22T18:45:58.919Z,1.27
2023-08-22T18:48:27.879Z,1.20
2023-08-22T18:51:01.522Z,1.00
2023-08-22T18:53:30.254Z,1.20
2023-08-22T18:55:58.656Z,1.60
2023-08-22T18:58:29.437Z,1.30
2023-08-22T19:01:00.900Z,1.20
2023-08-22T19:03:29.947Z,1.70
2023-08-22T19:06:04.388Z,1.40
2023-08-22T19:08:32.977Z,1.20
2023-08-22T19:11:04.663Z,1.00
2023-08-22T19:13:33.594Z,1.23
2023-08-22T19:16:03.376Z,1.47
2023-08-22T19:18:31.844Z,1.10
2023-08-22T19:21:00.021Z,1.30
2023-08-22T19:23:29.002Z,1.17
2023-08-22T19:26:02.944Z,1.33
2023-08-22T19:28:33.239Z,1.50
2023-08-22T19:31:03.060Z,1.17
2023-08-22T19:33:33.664Z,1.80
2023-08-22T19:36:02.781Z,1.47
2023-08-22T19:38:31.036Z,1.43
2023-08-22T19:40:59.864Z,1.50
2023-08-22T19:43:28.938Z,1.70
2023-08-22T19:45:59.526Z,1.33
2023-08-22T19:48:29.317Z,2.63
2023-08-22T19:50:58.171Z,2.43
2023-08-22T19:53:26.912Z,1.50
2023-08-22T19:55:55.915Z,1.87
2023-08-22T19:58:23.970Z,1.10
2023-08-22T20:00:55.472Z,1.40
2023-08-22T20:03:24.412Z,1.20
2023-08-22T20:06:03.062Z,1.50
2023-08-22T20:08:31.773Z,1.67
2023-08-22T20:11:01.143Z,1.17
2023-08-22T20:13:29.740Z,1.40
2023-08-22T20:15:58.142Z,1.20
2023-08-22T20:18:26.806Z,1.60
2023-08-22T20:20:57.590Z,1.93
2023-08-22T20:23:25.929Z,1.70
2023-08-22T20:25:53.980Z,1.47
2023-08-22T20:28:22.344Z,2.10
2023-08-22T20:30:54.213Z,1.77
2023-08-22T20:33:24.137Z,1.90
2023-08-22T20:35:53.546Z,1.73
2023-08-22T20:38:23.093Z,1.50
2023-08-22T20:40:55.891Z,1.63
2023-08-22T20:43:24.530Z,1.27
2023-08-22T20:45:52.891Z,1.83
2023-08-22T20:48:23.156Z,1.83
2023-08-22T20:50:51.868Z,1.57
2023-08-22T20:53:22.901Z,1.43
2023-08-22T20:55:55.777Z,2.20
2023-08-22T20:58:24.014Z,1.33
2023-08-22T21:00:52.856Z,1.90
2023-08-22T21:03:21.138Z,1.50
2023-08-22T21:05:50.972Z,1.87
2023-08-22T21:08:19.892Z,1.57
2023-08-22T21:10:48.643Z,2.00
2023-08-22T21:13:18.364Z,1.90
2023-08-22T21:15:46.544Z,2.30
2023-08-22T21:18:14.905Z,2.00
2023-08-22T21:20:44.176Z,1.37
2023-08-22T21:23:12.953Z,2.10
2023-08-22T21:25:42.324Z,2.57
2023-08-22T21:28:10.453Z,2.47
2023-08-22T21:30:42.945Z,2.37
2023-08-22T21:33:11.177Z,2.37
2023-08-22T21:35:39.484Z,1.90
2023-08-22T21:38:09.231Z,1.70
2023-08-22T21:40:38.010Z,1.70
2023-08-22T21:43:06.335Z,2.27
2023-08-22T21:45:36.973Z,2.47
2023-08-22T21:48:09.707Z,2.10
2023-08-22T21:50:37.903Z,2.40
2023-08-22T21:53:06.220Z,2.17
2023-08-22T21:55:34.349Z,2.33
2023-08-22T21:58:03.865Z,2.43
2023-08-22T22:00:34.300Z,1.83
2023-08-22T22:03:06.545Z,2.27
2023-08-22T22:05:37.515Z,2.03
2023-08-22T22:08:07.919Z,2.03
2023-08-22T22:10:36.147Z,1.57
2023-08-22T22:13:04.919Z,2.37
2023-08-22T22:15:33.186Z,2.17
2023-08-22T22:18:01.437Z,1.70
2023-08-22T22:20:30.896Z,1.67
2023-08-22T22:23:03.964Z,2.00
2023-08-22T22:25:32.729Z,1.50
2023-08-22T22:28:00.951Z,1.50
2023-08-22T22:30:30.831Z,1.73
2023-08-22T22:33:00.021Z,1.97
2023-08-22T22:35:28.439Z,2.47
2023-08-22T22:37:56.880Z,1.30
2023-08-22T22:40:27.782Z,2.13
2023-08-22T22:42:58.978Z,1.70
2023-08-22T22:45:27.162Z,2.47
2023-08-22T22:47:55.397Z,1.80
2023-08-22T22:50:23.957Z,1.83
2023-08-22T22:52:52.307Z,1.87
2023-08-22T22:55:20.470Z,1.87
2023-08-22T22:57:49.996Z,1.73
2023-08-22T23:00:19.962Z,1.80
2023-08-22T23:02:50.137Z,2.00
2023-08-22T23:05:21.841Z,1.80
2023-08-22T23:07:51.258Z,2.00
2023-08-22T23:10:20.520Z,2.27
2023-08-22T23:12:51.942Z,2.00
2023-08-22T23:15:20.444Z,1.97
2023-08-22T23:17:48.978Z,1.93
2023-08-22T23:20:19.471Z,2.30
2023-08-22T23:22:51.027Z,1.90
2023-08-22T23:25:19.962Z,2.20
2023-08-22T23:27:50.378Z,2.07
2023-08-22T23:30:18.879Z,1.97
2023-08-22T23:32:49.937Z,2.00
2023-08-22T23:35:19.983Z,2.07
2023-08-22T23:37:51.705Z,2.30
2023-08-22T23:40:25.002Z,2.20
2023-08-22T23:42:58.939Z,2.30
2023-08-22T23:45:31.030Z,2.13
2023-08-22T23:48:04.023Z,2.27
2023-08-22T23:50:36.167Z,1.80
2023-08-22T23:53:05.111Z,2.47
2023-08-22T23:55:33.975Z,2.00
2023-08-22T23:58:05.777Z,1.90
